Terminal Aerodrome Forecast
Issued by NWS Tuscon, AZ

Home | Current Version | Previous Version | Text Only | Print | Product List | Glossary On
Versions: 1 2 3 4 5 6 7 8 9 10 11 12 13
516
FTUS45 KTWC 231728
TAFDUG
TAF
KDUG 231728Z 2318/2418 20012G20KT P6SM SCT080
     FM232000 23018G28KT P6SM BKN060
     FM232300 24018G28KT P6SM FEW080
     FM240300 32007KT P6SM SKC=

USA.gov is the U.S. government's official web portal to all federal, state and local government web resources and services.